Time;durP1;ratioP1;P1;durP2;ratioP2;P2;SDS_P1;SDS_P2;PMS_P1;PMS_P2;Temp;Humidity;BMP_temperature;BMP_pressure;BME280_temperature;BME280_humidity;BME280_pressure;Samples;Min_cycle;Max_cycle;Signal;HPM_P1;HPM_P2
2023/08/21 00:01:31;;;;;;;7.57;6.87;;;25.90;99.90;;;;;;5059205;28;20571;-77
2023/08/21 00:03:59;;;;;;;7.90;7.30;;;25.90;99.90;;;;;;5055379;28;20446;-80
2023/08/21 00:06:27;;;;;;;7.50;6.90;;;25.90;99.90;;;;;;5059365;28;20498;-77
2023/08/21 00:08:55;;;;;;;8.80;8.07;;;25.80;99.90;;;;;;5063878;28;20453;-78
2023/08/21 00:11:24;;;;;;;7.63;7.03;;;25.80;99.90;;;;;;5062276;28;20489;-77
2023/08/21 00:13:55;;;;;;;8.17;7.47;;;25.80;99.90;;;;;;5059016;28;20445;-79
2023/08/21 00:16:23;;;;;;;8.10;7.40;;;25.80;99.90;;;;;;5061732;28;20456;-79
2023/08/21 00:18:54;;;;;;;8.00;7.30;;;25.80;99.90;;;;;;5060837;28;20495;-78
2023/08/21 00:21:23;;;;;;;7.90;7.20;;;25.80;99.90;;;;;;5060347;28;20510;-77
2023/08/21 00:23:51;;;;;;;8.13;7.33;;;25.70;99.90;;;;;;5058294;28;20444;-78
2023/08/21 00:26:19;;;;;;;7.97;7.27;;;25.70;99.90;;;;;;5054892;28;20476;-77
2023/08/21 00:28:54;;;;;;;8.33;7.80;;;25.70;99.90;;;;;;5055904;28;20449;-78
2023/08/21 00:31:30;;;;;;;7.97;7.27;;;25.60;99.90;;;;;;5056098;28;20484;-76
2023/08/21 00:33:58;;;;;;;7.30;6.70;;;25.60;99.90;;;;;;5058325;28;20453;-76
2023/08/21 00:36:29;;;;;;;8.37;7.60;;;25.60;99.90;;;;;;5057992;28;20980;-78
2023/08/21 00:39:02;;;;;;;8.13;7.63;;;25.60;99.90;;;;;;5060360;28;20484;-79
2023/08/21 00:41:34;;;;;;;8.33;7.77;;;25.60;99.90;;;;;;5060419;28;20471;-76
2023/08/21 00:44:04;;;;;;;7.63;7.03;;;25.60;99.90;;;;;;5058638;28;20454;-77
2023/08/21 00:46:33;;;;;;;8.17;7.53;;;25.50;99.90;;;;;;5057185;28;20469;-78
2023/08/21 00:49:05;;;;;;;8.17;7.37;;;25.50;99.90;;;;;;5060873;28;20453;-78
2023/08/21 00:51:34;;;;;;;8.77;8.10;;;25.40;99.90;;;;;;5057572;28;20489;-81
2023/08/21 00:54:03;;;;;;;10.43;9.40;;;25.40;99.90;;;;;;5054883;28;20441;-77
2023/08/21 00:56:31;;;;;;;9.47;8.57;;;25.30;99.90;;;;;;5055600;28;20497;-77
2023/08/21 01:01:52;;;;;;;8.77;7.90;;;25.20;99.90;;;;;;5056472;28;20441;-77
2023/08/21 01:04:28;;;;;;;9.67;8.83;;;25.20;99.90;;;;;;5058215;28;20426;-76
2023/08/21 01:07:01;;;;;;;8.90;8.23;;;25.20;99.90;;;;;;5057487;28;20473;-80
2023/08/21 01:09:35;;;;;;;8.80;8.10;;;25.20;99.90;;;;;;5058331;28;20488;-77
2023/08/21 01:12:09;;;;;;;9.40;8.50;;;25.20;99.90;;;;;;5058429;28;20466;-78
2023/08/21 01:14:53;;;;;;;9.57;8.87;;;25.20;99.90;;;;;;5057069;28;20473;-80
2023/08/21 01:17:23;;;;;;;9.80;8.87;;;25.00;99.90;;;;;;5062695;28;20512;-78
2023/08/21 01:19:55;;;;;;;9.50;8.70;;;25.10;99.90;;;;;;5066439;28;20450;-78
2023/08/21 01:22:27;;;;;;;9.87;8.73;;;25.00;99.90;;;;;;5065095;28;20453;-77
2023/08/21 01:24:57;;;;;;;10.17;9.20;;;25.00;99.90;;;;;;5067162;28;20499;-77
2023/08/21 01:27:25;;;;;;;9.97;9.10;;;24.90;99.90;;;;;;5067205;28;20466;-79
2023/08/21 01:29:54;;;;;;;9.30;8.50;;;24.90;99.90;;;;;;5066454;28;20446;-78
2023/08/21 01:32:28;;;;;;;10.17;9.17;;;24.90;99.90;;;;;;5065369;28;20560;-78
2023/08/21 01:34:58;;;;;;;10.77;9.67;;;24.90;99.90;;;;;;5058870;28;20548;-77
2023/08/21 01:37:27;;;;;;;10.03;9.07;;;24.90;99.90;;;;;;5057704;28;20525;-78
2023/08/21 01:39:59;;;;;;;10.10;9.20;;;24.90;99.90;;;;;;5056637;28;20981;-77
2023/08/21 01:42:27;;;;;;;10.67;9.70;;;24.90;99.90;;;;;;5057163;28;20454;-78
2023/08/21 01:44:55;;;;;;;9.80;8.93;;;24.80;99.90;;;;;;5053503;28;20449;-76
2023/08/21 01:47:23;;;;;;;11.30;10.30;;;24.70;99.90;;;;;;5053734;28;20464;-78
2023/08/21 01:49:52;;;;;;;10.33;9.30;;;24.60;99.90;;;;;;5053107;28;21322;-77
2023/08/21 01:52:27;;;;;;;11.67;10.57;;;24.50;99.90;;;;;;5053433;28;20481;-77
2023/08/21 01:55:07;;;;;;;10.30;9.50;;;24.50;99.90;;;;;;5054379;28;20483;-77
2023/08/21 01:57:38;;;;;;;11.30;10.20;;;24.50;99.90;;;;;;5055337;28;20491;-77
2023/08/21 02:00:09;;;;;;;10.30;9.47;;;24.50;99.90;;;;;;5053369;28;20457;-77
2023/08/21 02:02:36;;;;;;;10.03;9.30;;;24.50;99.90;;;;;;5054168;28;20661;-78
2023/08/21 02:05:05;;;;;;;10.30;9.47;;;24.40;99.90;;;;;;5053454;28;20453;-76
2023/08/21 02:07:33;;;;;;;10.30;9.37;;;24.40;99.90;;;;;;5053526;28;20473;-77
2023/08/21 02:10:13;;;;;;;11.17;9.73;;;24.30;99.90;;;;;;5053927;28;20452;-80
2023/08/21 02:12:41;;;;;;;10.50;9.60;;;24.30;99.90;;;;;;5053276;28;20567;-75
2023/08/21 02:15:12;;;;;;;10.30;9.33;;;24.30;99.90;;;;;;5057738;28;20507;-79
2023/08/21 02:17:42;;;;;;;10.30;9.33;;;24.20;99.90;;;;;;5057406;28;20477;-78
2023/08/21 02:20:11;;;;;;;10.63;9.83;;;24.20;99.90;;;;;;5055131;28;20452;-77
2023/08/21 02:22:39;;;;;;;9.87;9.00;;;24.20;99.90;;;;;;5057402;28;20532;-79
2023/08/21 02:25:09;;;;;;;10.23;9.43;;;24.10;99.90;;;;;;5054853;28;20544;-74
2023/08/21 02:27:40;;;;;;;9.80;9.07;;;24.10;99.90;;;;;;5053592;28;20541;-77
2023/08/21 02:30:13;;;;;;;10.83;9.83;;;24.10;99.90;;;;;;5057770;28;20452;-77
2023/08/21 02:32:44;;;;;;;9.20;8.40;;;24.00;99.90;;;;;;5055555;28;20500;-75
2023/08/21 02:35:13;;;;;;;9.93;9.10;;;24.00;99.90;;;;;;5055213;28;20456;-76
2023/08/21 02:37:41;;;;;;;9.83;9.10;;;24.00;99.90;;;;;;5056920;28;20461;-79
2023/08/21 02:40:11;;;;;;;10.43;9.50;;;23.90;99.90;;;;;;5055213;28;20994;-77
2023/08/21 02:42:40;;;;;;;10.37;9.30;;;23.90;99.90;;;;;;5059482;28;20441;-78
2023/08/21 02:45:09;;;;;;;11.23;10.07;;;23.80;99.90;;;;;;5056386;28;20482;-77
2023/08/21 02:47:39;;;;;;;9.70;9.00;;;23.80;99.90;;;;;;5057411;28;20476;-79
2023/08/21 02:50:09;;;;;;;12.13;10.47;;;23.70;99.90;;;;;;5059783;28;20528;-78
2023/08/21 02:52:38;;;;;;;9.50;8.73;;;23.70;99.90;;;;;;5059384;28;20469;-76
2023/08/21 02:55:06;;;;;;;11.93;10.20;;;23.70;99.90;;;;;;5060079;28;20898;-78
2023/08/21 02:57:36;;;;;;;11.60;10.50;;;23.70;99.90;;;;;;5060731;28;20565;-77
2023/08/21 03:00:05;;;;;;;10.00;9.20;;;23.70;99.90;;;;;;5062551;28;20442;-78
2023/08/21 03:02:33;;;;;;;10.00;9.30;;;23.70;99.90;;;;;;5058627;28;20442;-77
2023/08/21 03:05:01;;;;;;;10.23;9.30;;;23.70;99.90;;;;;;5059023;28;20591;-77
2023/08/21 03:07:29;;;;;;;9.90;9.10;;;23.60;99.90;;;;;;5060552;28;20469;-79
2023/08/21 03:09:57;;;;;;;9.80;8.93;;;23.60;99.90;;;;;;5059575;28;20461;-76
2023/08/21 03:12:29;;;;;;;11.20;9.97;;;23.60;99.90;;;;;;5056790;28;20477;-77
2023/08/21 03:15:12;;;;;;;10.33;9.57;;;23.50;99.90;;;;;;5059375;28;20465;-79
2023/08/21 03:17:41;;;;;;;9.93;9.20;;;23.40;99.90;;;;;;5054666;28;20497;-76
2023/08/21 03:20:09;;;;;;;10.57;9.80;;;23.40;99.90;;;;;;5057814;28;20453;-76
2023/08/21 03:22:37;;;;;;;11.17;10.07;;;23.40;99.90;;;;;;5056254;28;20700;-75
2023/08/21 03:25:05;;;;;;;11.00;10.10;;;23.40;99.90;;;;;;5056544;28;20938;-76
2023/08/21 03:27:32;;;;;;;10.70;9.70;;;23.40;99.90;;;;;;5057264;28;20491;-76
2023/08/21 03:30:02;;;;;;;10.63;9.93;;;23.40;99.90;;;;;;5056673;28;20460;-81
2023/08/21 03:32:30;;;;;;;10.80;9.70;;;23.30;99.90;;;;;;5056526;28;20576;-75
2023/08/21 03:34:58;;;;;;;10.63;9.63;;;23.30;99.90;;;;;;5056425;28;20843;-76
2023/08/21 03:37:28;;;;;;;10.97;10.10;;;23.30;99.90;;;;;;5056683;28;20839;-77
2023/08/21 03:39:57;;;;;;;11.50;10.50;;;23.30;99.90;;;;;;5057937;28;20457;-78
2023/08/21 03:42:28;;;;;;;10.57;9.77;;;23.30;99.90;;;;;;5059293;28;20684;-77
2023/08/21 03:45:05;;;;;;;10.97;9.97;;;23.20;99.90;;;;;;5059305;28;20530;-77
2023/08/21 03:47:33;;;;;;;10.70;9.60;;;23.20;99.90;;;;;;5059314;28;20853;-77
2023/08/21 03:50:04;;;;;;;11.53;9.70;;;23.20;99.90;;;;;;5060051;28;20518;-80
2023/08/21 03:52:31;;;;;;;10.77;9.83;;;23.20;99.90;;;;;;5058248;28;20469;-77
2023/08/21 03:54:59;;;;;;;11.27;10.47;;;23.20;99.90;;;;;;5059561;28;20445;-78
2023/08/21 03:57:28;;;;;;;11.63;9.73;;;23.10;99.90;;;;;;5058860;28;20468;-77
2023/08/21 03:59:59;;;;;;;10.70;9.70;;;23.10;99.90;;;;;;5057834;28;20457;-77
2023/08/21 04:02:29;;;;;;;10.90;9.87;;;23.10;99.90;;;;;;5058933;28;20472;-77
2023/08/21 04:04:58;;;;;;;11.10;10.10;;;23.10;99.90;;;;;;5058248;28;20473;-76
2023/08/21 04:07:25;;;;;;;12.17;10.83;;;23.00;99.90;;;;;;5055586;28;20886;-76
2023/08/21 04:09:54;;;;;;;10.80;9.83;;;23.00;99.90;;;;;;5055564;28;20448;-79
2023/08/21 04:12:21;;;;;;;10.90;9.97;;;23.00;99.90;;;;;;5053886;28;20516;-75
2023/08/21 04:14:49;;;;;;;11.07;10.27;;;23.00;99.90;;;;;;5053998;28;20549;-80
2023/08/21 04:17:22;;;;;;;11.93;10.47;;;23.00;99.90;;;;;;5054271;28;20469;-77
2023/08/21 04:19:51;;;;;;;11.83;10.63;;;23.00;99.90;;;;;;5054290;28;20460;-79
2023/08/21 04:22:19;;;;;;;11.80;10.60;;;22.90;99.90;;;;;;5055534;28;20446;-76
2023/08/21 04:24:52;;;;;;;11.53;10.63;;;22.90;99.90;;;;;;5055988;28;20449;-76
2023/08/21 04:27:23;;;;;;;11.70;10.60;;;22.80;99.90;;;;;;5058668;28;20465;-78
2023/08/21 04:29:52;;;;;;;10.43;9.70;;;22.80;99.90;;;;;;5058851;28;20532;-77
2023/08/21 04:32:20;;;;;;;11.00;10.10;;;22.70;99.90;;;;;;5053563;28;20477;-78
2023/08/21 04:34:51;;;;;;;12.77;11.47;;;22.70;99.90;;;;;;5055473;28;20836;-77
2023/08/21 04:37:20;;;;;;;11.77;10.60;;;22.80;99.90;;;;;;5052703;28;20480;-77
2023/08/21 04:39:52;;;;;;;11.73;10.53;;;22.80;99.90;;;;;;5056641;28;20455;-77
2023/08/21 04:42:20;;;;;;;12.40;11.47;;;22.80;99.90;;;;;;5049472;28;20533;-77
2023/08/21 04:44:48;;;;;;;11.80;10.90;;;22.70;99.90;;;;;;5059589;28;20478;-80
2023/08/21 04:47:23;;;;;;;13.53;11.90;;;22.70;99.90;;;;;;5057327;28;20527;-77
2023/08/21 04:50:00;;;;;;;12.37;11.23;;;22.70;99.90;;;;;;5055967;28;20453;-75
2023/08/21 04:52:29;;;;;;;13.10;11.80;;;22.70;99.90;;;;;;5059946;28;20481;-78
2023/08/21 04:54:57;;;;;;;14.43;13.10;;;22.50;99.90;;;;;;5061214;28;20438;-80
2023/08/21 04:57:28;;;;;;;14.33;12.83;;;22.50;99.90;;;;;;5060753;28;20468;-75
2023/08/21 04:59:59;;;;;;;14.73;13.33;;;22.50;99.90;;;;;;5062312;28;20429;-78
2023/08/21 05:02:27;;;;;;;14.63;12.40;;;22.60;99.90;;;;;;5063578;28;20465;-78
2023/08/21 05:04:55;;;;;;;13.80;12.60;;;22.60;99.90;;;;;;5062500;28;20509;-78
2023/08/21 05:07:23;;;;;;;14.83;13.40;;;22.60;99.90;;;;;;5061030;28;20535;-76
2023/08/21 05:09:53;;;;;;;14.70;12.57;;;22.60;99.90;;;;;;5062842;28;20458;-77
2023/08/21 05:12:20;;;;;;;15.33;13.73;;;22.60;99.90;;;;;;5061678;28;20476;-77
2023/08/21 05:14:48;;;;;;;16.20;14.60;;;22.70;99.90;;;;;;5061230;28;20540;-76
2023/08/21 05:17:15;;;;;;;15.37;13.97;;;22.70;99.90;;;;;;5060875;28;20504;-77
2023/08/21 05:19:42;;;;;;;14.90;13.50;;;22.70;99.90;;;;;;5059440;28;20678;-77
2023/08/21 05:22:10;;;;;;;15.07;13.40;;;22.70;99.90;;;;;;5058693;28;20473;-77
2023/08/21 05:24:37;;;;;;;16.00;14.70;;;22.80;99.90;;;;;;5058899;28;20446;-80
2023/08/21 05:27:06;;;;;;;14.93;13.50;;;22.80;99.90;;;;;;5059813;28;20484;-78
2023/08/21 05:29:34;;;;;;;15.20;13.60;;;22.90;99.90;;;;;;5056528;28;20656;-76
2023/08/21 05:32:05;;;;;;;15.73;14.23;;;22.90;99.90;;;;;;5054689;28;20469;-75
2023/08/21 05:34:33;;;;;;;14.30;13.07;;;23.20;99.90;;;;;;5054373;28;20925;-75
2023/08/21 05:37:00;;;;;;;14.93;13.50;;;23.00;99.90;;;;;;5054362;28;20979;-77
2023/08/21 05:39:28;;;;;;;14.73;13.43;;;23.10;99.90;;;;;;5053449;28;20450;-78
2023/08/21 05:41:56;;;;;;;15.10;13.50;;;23.10;99.90;;;;;;5055013;28;20830;-81
2023/08/21 05:44:29;;;;;;;14.00;12.70;;;23.20;99.90;;;;;;5055122;28;20458;-77
2023/08/21 05:46:56;;;;;;;12.53;11.33;;;23.30;99.90;;;;;;5054861;28;20504;-78
2023/08/21 05:49:24;;;;;;;13.37;12.07;;;23.30;99.90;;;;;;5054159;28;20474;-80
2023/08/21 05:52:01;;;;;;;13.57;12.27;;;23.40;99.90;;;;;;5054968;28;20473;-80
2023/08/21 05:54:32;;;;;;;16.10;14.53;;;23.60;99.90;;;;;;5055635;28;20446;-82
2023/08/21 05:57:01;;;;;;;16.87;13.80;;;23.60;99.90;;;;;;5055422;28;20907;-77
2023/08/21 05:59:33;;;;;;;13.80;12.40;;;23.70;99.90;;;;;;5054998;28;20472;-79
2023/08/21 06:02:00;;;;;;;14.00;12.60;;;23.80;99.90;;;;;;5056312;28;20441;-76
2023/08/21 06:04:28;;;;;;;13.67;12.30;;;23.90;99.90;;;;;;5052868;28;20528;-78
2023/08/21 06:06:56;;;;;;;14.80;13.27;;;23.90;99.90;;;;;;5053326;28;20824;-79
2023/08/21 06:09:25;;;;;;;14.23;12.03;;;24.00;99.90;;;;;;5053533;28;20453;-79
2023/08/21 06:11:55;;;;;;;12.33;11.10;;;24.10;99.90;;;;;;5053325;28;20477;-76
2023/08/21 06:14:28;;;;;;;13.80;12.40;;;24.20;99.90;;;;;;5052334;28;21038;-80
2023/08/21 06:17:00;;;;;;;13.30;12.10;;;24.30;99.90;;;;;;5052797;28;20516;-79
2023/08/21 06:19:28;;;;;;;12.93;11.60;;;24.30;99.90;;;;;;5052740;28;20456;-79
2023/08/21 06:21:57;;;;;;;11.97;10.97;;;24.40;99.90;;;;;;5050989;28;20441;-79
2023/08/21 06:24:25;;;;;;;11.60;10.47;;;24.50;99.90;;;;;;5051205;28;20484;-76
2023/08/21 06:26:54;;;;;;;12.17;11.00;;;24.50;99.90;;;;;;5052957;28;20466;-77
2023/08/21 06:29:22;;;;;;;11.63;10.50;;;24.60;99.90;;;;;;5052313;28;20469;-81
2023/08/21 06:31:56;;;;;;;11.80;10.70;;;24.70;99.90;;;;;;5054892;28;20456;-79
2023/08/21 06:34:26;;;;;;;11.60;10.43;;;24.70;99.90;;;;;;5058453;28;20445;-78
2023/08/21 06:36:56;;;;;;;11.10;10.20;;;24.80;99.90;;;;;;5059424;28;20565;-77
2023/08/21 06:39:28;;;;;;;12.33;11.33;;;24.90;99.90;;;;;;5053624;28;20463;-81
2023/08/21 06:41:56;;;;;;;11.57;10.43;;;24.90;99.90;;;;;;5053094;28;20441;-77
2023/08/21 06:44:24;;;;;;;11.57;10.47;;;25.00;99.90;;;;;;5052440;28;20446;-78
2023/08/21 06:49:45;;;;;;;12.50;11.30;;;25.20;99.90;;;;;;5050602;28;20492;-78
2023/08/21 06:52:38;;;;;;;11.67;10.63;;;25.30;99.90;;;;;;5051446;28;20480;-76
2023/08/21 06:55:14;;;;;;;11.83;10.80;;;25.40;99.90;;;;;;5051529;28;20457;-80
2023/08/21 06:57:45;;;;;;;11.50;10.60;;;25.40;99.90;;;;;;5052007;28;20839;-78
2023/08/21 07:00:19;;;;;;;12.33;11.13;;;25.50;99.90;;;;;;5052149;28;20457;-79
2023/08/21 07:02:56;;;;;;;12.00;11.00;;;25.60;99.90;;;;;;5052102;28;20460;-78
2023/08/21 07:05:27;;;;;;;11.70;10.60;;;25.60;99.90;;;;;;5052272;28;20471;-80
2023/08/21 07:08:08;;;;;;;13.90;10.90;;;25.70;99.90;;;;;;5052299;28;20459;-76
2023/08/21 07:10:38;;;;;;;12.70;11.40;;;25.80;99.90;;;;;;5054435;28;20449;-81
2023/08/21 07:13:12;;;;;;;12.80;11.70;;;25.90;99.90;;;;;;5056413;28;20547;-81
2023/08/21 07:15:44;;;;;;;13.20;11.97;;;25.90;99.90;;;;;;5055644;28;20910;-77
2023/08/21 07:18:16;;;;;;;12.40;11.20;;;26.00;99.90;;;;;;5054998;28;20461;-78
2023/08/21 07:20:50;;;;;;;12.30;10.93;;;26.10;99.90;;;;;;5056382;28;20458;-78
2023/08/21 07:23:23;;;;;;;14.23;11.40;;;26.10;99.90;;;;;;5056120;28;20445;-79
2023/08/21 07:25:52;;;;;;;12.10;10.87;;;26.30;99.90;;;;;;5055649;28;20492;-77
2023/08/21 07:28:20;;;;;;;12.97;11.87;;;26.30;99.90;;;;;;5053233;28;20446;-79
2023/08/21 07:30:48;;;;;;;12.53;11.23;;;26.40;99.90;;;;;;5052869;28;20448;-78
2023/08/21 07:33:19;;;;;;;12.67;11.40;;;26.40;99.90;;;;;;5053890;28;20477;-81
2023/08/21 07:35:49;;;;;;;11.60;10.57;;;26.50;99.90;;;;;;5055286;28;20465;-77
2023/08/21 07:38:22;;;;;;;13.60;12.37;;;26.60;99.90;;;;;;5056656;28;20450;-80
2023/08/21 07:40:54;;;;;;;11.17;10.17;;;26.70;99.90;;;;;;5056818;28;20507;-78
2023/08/21 07:43:28;;;;;;;10.50;9.53;;;26.80;99.90;;;;;;5058343;28;20450;-79
2023/08/21 07:45:56;;;;;;;11.13;10.13;;;26.90;99.90;;;;;;5057050;28;20630;-80
2023/08/21 07:48:27;;;;;;;10.63;9.83;;;26.90;99.90;;;;;;5057466;28;20462;-78
2023/08/21 07:50:57;;;;;;;11.83;10.53;;;27.00;99.90;;;;;;5058087;28;20460;-78
2023/08/21 07:53:29;;;;;;;10.77;9.67;;;27.10;99.90;;;;;;5056435;28;20481;-78
2023/08/21 07:55:59;;;;;;;9.90;9.00;;;27.20;99.90;;;;;;5057207;28;20466;-81
2023/08/21 07:58:32;;;;;;;9.87;9.07;;;27.50;99.90;;;;;;5058712;28;20449;-78
2023/08/21 08:01:04;;;;;;;11.60;9.90;;;27.40;99.90;;;;;;5060325;28;20499;-79
2023/08/21 08:03:45;;;;;;;13.03;9.23;;;27.80;99.90;;;;;;5063255;28;20489;-81
2023/08/21 08:06:14;;;;;;;9.97;8.97;;;27.70;99.90;;;;;;5061860;28;20555;-82
2023/08/21 08:08:42;;;;;;;10.00;9.17;;;27.90;99.90;;;;;;5061106;28;20477;-78
2023/08/21 08:11:11;;;;;;;11.43;10.07;;;28.00;99.90;;;;;;5058920;28;20445;-78
2023/08/21 08:13:41;;;;;;;10.20;9.20;;;28.10;99.90;;;;;;5059925;28;20560;-78
2023/08/21 08:16:14;;;;;;;10.97;9.00;;;28.10;99.90;;;;;;5052926;28;20451;-77
2023/08/21 08:18:42;;;;;;;9.77;8.90;;;28.20;99.90;;;;;;5063100;28;20446;-78
2023/08/21 08:21:15;;;;;;;9.87;9.07;;;28.30;99.90;;;;;;5063841;28;20456;-80
2023/08/21 08:23:48;;;;;;;11.10;10.03;;;28.30;99.90;;;;;;5063568;28;20445;-83
2023/08/21 08:26:17;;;;;;;12.20;11.00;;;28.50;99.90;;;;;;5063156;28;20516;-79
2023/08/21 08:28:47;;;;;;;11.03;9.70;;;28.60;99.90;;;;;;5062157;28;20461;-78
2023/08/21 08:31:25;;;;;;;10.70;9.80;;;28.70;99.90;;;;;;5062063;28;20445;-78
2023/08/21 08:33:53;;;;;;;11.93;10.80;;;28.60;99.90;;;;;;5061464;28;20828;-78
2023/08/21 08:36:22;;;;;;;12.50;10.73;;;29.20;99.90;;;;;;5060516;28;20480;-77
2023/08/21 08:38:52;;;;;;;11.17;10.10;;;29.20;99.90;;;;;;5060384;28;20450;-79
2023/08/21 08:41:28;;;;;;;11.33;10.13;;;29.30;99.90;;;;;;5060063;28;20473;-79
2023/08/21 08:43:59;;;;;;;11.73;10.00;;;29.40;99.90;;;;;;5059708;28;20445;-79
2023/08/21 08:46:30;;;;;;;11.17;9.70;;;29.50;99.90;;;;;;5061397;28;20493;-78
2023/08/21 08:49:00;;;;;;;9.20;8.40;;;29.70;99.90;;;;;;5060473;28;20446;-80
2023/08/21 08:51:32;;;;;;;9.27;8.43;;;29.70;99.90;;;;;;5059463;28;20433;-79
2023/08/21 08:54:03;;;;;;;9.40;8.70;;;29.80;99.90;;;;;;5059726;28;20505;-78
2023/08/21 08:56:35;;;;;;;8.87;8.17;;;30.00;99.90;;;;;;5059191;28;20531;-78
2023/08/21 08:59:16;;;;;;;9.43;8.47;;;30.30;99.90;;;;;;5059432;28;20457;-79
2023/08/21 09:01:55;;;;;;;10.30;8.20;;;30.20;99.90;;;;;;5060051;28;20460;-82
2023/08/21 09:04:27;;;;;;;10.13;9.20;;;30.40;99.90;;;;;;5058789;28;20508;-79
2023/08/21 09:07:07;;;;;;;10.50;8.40;;;30.60;99.90;;;;;;5060130;28;20470;-80
2023/08/21 09:09:44;;;;;;;9.40;8.70;;;30.60;99.90;;;;;;5060641;28;20512;-78
2023/08/21 09:12:14;;;;;;;9.10;8.27;;;30.60;99.90;;;;;;5060749;28;20453;-77
2023/08/21 09:14:43;;;;;;;9.47;8.33;;;30.40;99.90;;;;;;5059033;28;20465;-78
2023/08/21 09:17:12;;;;;;;9.83;8.90;;;30.30;99.90;;;;;;5059255;28;20583;-79
2023/08/21 09:19:44;;;;;;;9.10;8.20;;;30.20;99.90;;;;;;5056406;28;20503;-78
2023/08/21 09:22:17;;;;;;;8.87;8.20;;;30.30;99.90;;;;;;5054768;28;20520;-79
2023/08/21 09:25:10;;;;;;;8.73;8.03;;;30.80;99.90;;;;;;5055217;28;20532;-78
2023/08/21 09:27:42;;;;;;;8.70;7.40;;;31.40;99.90;;;;;;5054590;28;20469;-78
2023/08/21 09:30:14;;;;;;;7.53;7.03;;;31.50;99.90;;;;;;5054684;28;20426;-80
2023/08/21 09:33:00;;;;;;;9.27;8.10;;;31.70;99.90;;;;;;5054680;28;20441;-79
2023/08/21 09:35:28;;;;;;;7.83;7.23;;;31.80;99.90;;;;;;5053681;28;20453;-79
2023/08/21 09:37:55;;;;;;;8.57;7.87;;;32.10;99.90;;;;;;5053295;28;20545;-80
2023/08/21 09:40:25;;;;;;;9.33;8.60;;;32.30;99.90;;;;;;5054300;28;20503;-81
2023/08/21 09:42:55;;;;;;;7.47;6.97;;;32.10;99.90;;;;;;5054273;28;20437;-80
2023/08/21 09:45:27;;;;;;;9.03;7.20;;;32.40;99.90;;;;;;5054116;28;20585;-78
2023/08/21 09:47:56;;;;;;;6.20;5.60;;;32.70;99.90;;;;;;5053497;28;20532;-80
2023/08/21 09:50:24;;;;;;;5.87;5.40;;;32.90;99.90;;;;;;5053868;28;20425;-80
2023/08/21 09:52:54;;;;;;;5.83;5.30;;;33.30;99.90;;;;;;5054474;28;20757;-78
2023/08/21 09:55:22;;;;;;;7.90;5.90;;;33.50;99.90;;;;;;5054077;28;20459;-77
2023/08/21 09:57:58;;;;;;;7.00;5.50;;;33.40;99.90;;;;;;5054442;28;20442;-77
2023/08/21 10:00:30;;;;;;;8.87;5.90;;;33.40;99.90;;;;;;5057474;28;20479;-80
2023/08/21 10:03:02;;;;;;;6.90;6.30;;;33.00;99.90;;;;;;5059185;28;20453;-78
2023/08/21 10:05:31;;;;;;;7.90;6.20;;;33.10;99.90;;;;;;5056423;28;20445;-79
2023/08/21 10:08:06;;;;;;;5.50;5.00;;;33.70;99.90;;;;;;5054544;28;20430;-79
2023/08/21 10:10:38;;;;;;;5.53;5.23;;;33.90;99.90;;;;;;5055065;28;20444;-80
2023/08/21 10:13:09;;;;;;;8.97;5.73;;;34.20;99.90;;;;;;5055196;28;20441;-79
2023/08/21 10:15:38;;;;;;;6.37;5.77;;;34.30;99.90;;;;;;5055875;28;20454;-81
2023/08/21 10:18:20;;;;;;;6.23;5.80;;;33.90;99.90;;;;;;5056548;28;20496;-81
2023/08/21 10:20:53;;;;;;;7.07;6.30;;;33.90;99.90;;;;;;5055344;28;20449;-79
2023/08/21 10:23:29;;;;;;;6.07;5.67;;;34.40;99.90;;;;;;5057013;28;20449;-81
2023/08/21 10:25:58;;;;;;;7.13;6.50;;;34.70;99.90;;;;;;5056137;28;20468;-79
2023/08/21 10:28:46;;;;;;;6.77;6.17;;;35.00;99.90;;;;;;5056967;28;20445;-79
2023/08/21 10:31:30;;;;;;;9.73;6.20;;;34.90;99.90;;;;;;5056526;28;20457;-78
2023/08/21 10:33:59;;;;;;;8.17;6.00;;;35.20;99.90;;;;;;5054771;28;20481;-80
2023/08/21 10:37:09;;;;;;;7.00;6.40;;;35.20;99.90;;;;;;5055965;28;20489;-80
2023/08/21 10:39:39;;;;;;;6.53;5.93;;;35.30;99.90;;;;;;5026308;28;20931;-81
2023/08/21 10:42:09;;;;;;;9.80;6.30;;;35.20;99.90;;;;;;5056022;28;20446;-80
2023/08/21 10:44:55;;;;;;;10.27;6.50;;;34.90;99.90;;;;;;5055311;28;20437;-77
2023/08/21 10:47:24;;;;;;;7.03;6.33;;;35.00;99.90;;;;;;5056063;28;20509;-78
2023/08/21 10:49:56;;;;;;;6.67;5.90;;;35.30;99.90;;;;;;5054340;28;20548;-80
2023/08/21 10:52:27;;;;;;;7.10;5.43;;;35.60;99.90;;;;;;5054245;28;20461;-81
2023/08/21 10:55:00;;;;;;;5.90;5.47;;;35.80;99.90;;;;;;5055740;28;20575;-80
2023/08/21 10:57:31;;;;;;;8.37;5.67;;;35.60;99.90;;;;;;5054868;28;20478;-77
2023/08/21 11:00:03;;;;;;;5.97;5.47;;;35.90;99.90;;;;;;5053352;28;20450;-80
2023/08/21 11:02:34;;;;;;;6.73;5.60;;;36.30;99.90;;;;;;5054369;28;20437;-80
2023/08/21 11:05:06;;;;;;;5.90;5.50;;;36.00;99.90;;;;;;5053876;28;20540;-79
2023/08/21 11:07:43;;;;;;;6.20;5.70;;;36.40;99.90;;;;;;5055588;28;20831;-79
2023/08/21 11:10:14;;;;;;;6.27;5.77;;;35.80;99.90;;;;;;5057533;28;20444;-77
2023/08/21 11:12:52;;;;;;;6.50;5.90;;;36.20;99.90;;;;;;5057134;28;20948;-77
2023/08/21 11:15:30;;;;;;;6.50;5.90;;;36.40;99.90;;;;;;5061360;28;21054;-81
2023/08/21 11:18:10;;;;;;;6.60;6.10;;;36.50;99.90;;;;;;5060794;28;20438;-78
2023/08/21 11:20:42;;;;;;;6.77;6.07;;;36.60;99.90;;;;;;5064553;28;20941;-81
2023/08/21 11:23:12;;;;;;;8.67;5.73;;;36.60;99.90;;;;;;5058705;28;20830;-79
2023/08/21 11:25:41;;;;;;;7.60;6.07;;;37.00;99.90;;;;;;5062290;28;20445;-82
2023/08/21 11:28:11;;;;;;;6.10;5.60;;;36.90;99.90;;;;;;5056236;28;20937;-80
2023/08/21 11:30:41;;;;;;;6.53;6.00;;;36.40;99.90;;;;;;5055508;28;20448;-81
2023/08/21 11:33:11;;;;;;;6.97;5.80;;;36.20;99.90;;;;;;5056053;28;20476;-78
2023/08/21 11:35:40;;;;;;;7.23;5.47;;;36.70;99.90;;;;;;5055597;28;20534;-78
2023/08/21 11:38:16;;;;;;;6.03;5.57;;;36.50;99.90;;;;;;5056330;28;20488;-78
2023/08/21 11:40:46;;;;;;;6.50;5.90;;;35.90;99.90;;;;;;5056234;28;20441;-78
2023/08/21 11:43:17;;;;;;;7.47;6.20;;;36.20;99.90;;;;;;5058378;28;20500;-81
2023/08/21 11:45:53;;;;;;;9.53;6.00;;;36.50;99.90;;;;;;5059487;28;20493;-80
2023/08/21 11:48:23;;;;;;;7.50;5.90;;;37.10;99.20;;;;;;5057602;28;20796;-80
2023/08/21 11:50:51;;;;;;;6.40;5.83;;;37.60;97.90;;;;;;5058005;28;20426;-80
2023/08/21 11:53:36;;;;;;;6.10;5.50;;;38.10;97.00;;;;;;5059682;28;20945;-78
2023/08/21 11:56:04;;;;;;;6.07;5.60;;;38.40;95.90;;;;;;5062644;28;20470;-80
2023/08/21 11:58:32;;;;;;;6.20;5.60;;;38.60;95.30;;;;;;5068919;28;20450;-79
2023/08/21 12:01:09;;;;;;;6.30;5.77;;;38.30;94.90;;;;;;5070531;28;21019;-82
2023/08/21 12:03:45;;;;;;;6.60;5.80;;;38.40;95.10;;;;;;5068915;28;20440;-79
2023/08/21 12:06:13;;;;;;;7.57;5.77;;;38.30;94.90;;;;;;5068063;28;20489;-78
2023/08/21 12:08:53;;;;;;;6.93;6.10;;;37.80;94.40;;;;;;5069189;28;20476;-80
2023/08/21 12:11:22;;;;;;;6.90;5.83;;;37.10;95.50;;;;;;5066224;28;20445;-78
2023/08/21 12:13:50;;;;;;;5.97;5.57;;;36.70;96.30;;;;;;5065274;28;20635;-78
2023/08/21 12:16:19;;;;;;;6.20;5.60;;;37.40;95.40;;;;;;5070516;28;20989;-79
2023/08/21 12:18:47;;;;;;;7.13;5.50;;;37.80;94.80;;;;;;5066449;28;20456;-79
2023/08/21 12:21:15;;;;;;;7.90;5.50;;;38.00;94.80;;;;;;5064671;28;20460;-79
2023/08/21 12:23:43;;;;;;;10.20;5.83;;;37.90;94.50;;;;;;5065218;28;20442;-78
2023/08/21 12:26:11;;;;;;;6.17;5.77;;;38.60;93.60;;;;;;5066056;28;20470;-79
2023/08/21 12:28:39;;;;;;;6.13;5.57;;;38.60;92.90;;;;;;5065779;28;20520;-80
2023/08/21 12:31:10;;;;;;;5.90;5.40;;;37.70;93.40;;;;;;5065709;28;20465;-79
2023/08/21 12:33:41;;;;;;;5.80;5.37;;;39.10;92.30;;;;;;5067714;28;20516;-82
2023/08/21 12:36:12;;;;;;;7.30;6.27;;;39.20;92.10;;;;;;5067332;28;20466;-80
2023/08/21 12:38:40;;;;;;;6.00;5.50;;;38.30;92.20;;;;;;5073539;28;20417;-78
2023/08/21 12:41:14;;;;;;;5.50;5.10;;;38.30;92.50;;;;;;5072074;28;20477;-78
2023/08/21 12:43:48;;;;;;;5.50;5.10;;;38.40;92.20;;;;;;5062675;28;20445;-79
2023/08/21 12:46:22;;;;;;;5.73;5.33;;;38.50;91.90;;;;;;5059581;28;20473;-80
2023/08/21 12:49:01;;;;;;;6.20;5.60;;;38.70;91.60;;;;;;5061472;28;20514;-78
2023/08/21 12:51:29;;;;;;;7.00;5.87;;;38.30;91.30;;;;;;5061009;28;20503;-78
2023/08/21 12:54:06;;;;;;;5.50;5.20;;;38.30;91.30;;;;;;5059667;28;20481;-80
2023/08/21 12:56:40;;;;;;;6.40;5.80;;;37.40;92.00;;;;;;5060218;28;20469;-79
2023/08/21 12:59:08;;;;;;;6.10;5.50;;;37.40;92.10;;;;;;5066057;28;20449;-80
2023/08/21 13:01:37;;;;;;;6.03;5.50;;;37.50;92.20;;;;;;5068484;28;20430;-78
2023/08/21 13:04:06;;;;;;;7.73;5.67;;;37.40;92.10;;;;;;5065599;28;20445;-78